sensor_id;sensor_type;location;lat;lon;timestamp;pressure;altitude;pressure_sealevel;temperature
74321;BMP280;62738;45.772;4.804;2022-08-25T00:00:54;-23803.13;;;23.11
74321;BMP280;62738;45.772;4.804;2022-08-25T00:03:43;-23803.59;;;23.12
74321;BMP280;62738;45.772;4.804;2022-08-25T00:06:30;-23809.91;;;23.25
74321;BMP280;62738;45.772;4.804;2022-08-25T00:09:20;-23798.72;;;23.02
74321;BMP280;62738;45.772;4.804;2022-08-25T00:12:08;-23813.78;;;23.33
74321;BMP280;62738;45.772;4.804;2022-08-25T00:14:55;-23819.13;;;23.44
74321;BMP280;62738;45.772;4.804;2022-08-25T00:17:42;-23818.16;;;23.42
74321;BMP280;62738;45.772;4.804;2022-08-25T00:20:29;-23818.16;;;23.42
74321;BMP280;62738;45.772;4.804;2022-08-25T00:23:17;-23818.16;;;23.42
74321;BMP280;62738;45.772;4.804;2022-08-25T00:26:05;-23817.44;;;23.40
74321;BMP280;62738;45.772;4.804;2022-08-25T00:28:53;-23821.06;;;23.48
74321;BMP280;62738;45.772;4.804;2022-08-25T00:31:47;-23822.03;;;23.50
74321;BMP280;62738;45.772;4.804;2022-08-25T00:34:36;-23817.19;;;23.40
74321;BMP280;62738;45.772;4.804;2022-08-25T00:37:23;-23815.25;;;23.36
74321;BMP280;62738;45.772;4.804;2022-08-25T00:40:11;-23807.72;;;23.20
74321;BMP280;62738;45.772;4.804;2022-08-25T00:42:58;-23800.94;;;23.06
74321;BMP280;62738;45.772;4.804;2022-08-25T00:45:46;-23796.06;;;22.97
74321;BMP280;62738;45.772;4.804;2022-08-25T00:48:33;-23801.41;;;23.07
74321;BMP280;62738;45.772;4.804;2022-08-25T00:51:28;-23807.97;;;23.21
74321;BMP280;62738;45.772;4.804;2022-08-25T00:54:27;-23810.41;;;23.26
74321;BMP280;62738;45.772;4.804;2022-08-25T00:57:17;-23812.59;;;23.30
74321;BMP280;62738;45.772;4.804;2022-08-25T01:00:27;-23803.59;;;23.12
74321;BMP280;62738;45.772;4.804;2022-08-25T01:03:16;-23793.41;;;22.91
74321;BMP280;62738;45.772;4.804;2022-08-25T01:06:06;-23789.53;;;22.83
74321;BMP280;62738;45.772;4.804;2022-08-25T01:08:53;-23789.53;;;22.83
74321;BMP280;62738;45.772;4.804;2022-08-25T01:11:41;-23793.41;;;22.91
74321;BMP280;62738;45.772;4.804;2022-08-25T01:14:31;-23791.69;;;22.88
74321;BMP280;62738;45.772;4.804;2022-08-25T01:17:18;-23793.88;;;22.92
74321;BMP280;62738;45.772;4.804;2022-08-25T01:20:07;-23784.19;;;22.72
74321;BMP280;62738;45.772;4.804;2022-08-25T01:22:55;-23786.13;;;22.76
74321;BMP280;62738;45.772;4.804;2022-08-25T01:28:34;-23781.28;;;22.66
74321;BMP280;62738;45.772;4.804;2022-08-25T01:31:22;-23784.66;;;22.73
74321;BMP280;62738;45.772;4.804;2022-08-25T01:34:10;-23796.81;;;22.98
74321;BMP280;62738;45.772;4.804;2022-08-25T01:36:59;-23799.72;;;23.04
74321;BMP280;62738;45.772;4.804;2022-08-25T01:39:46;-23809.91;;;23.25
74321;BMP280;62738;45.772;4.804;2022-08-25T01:45:42;-23807.97;;;23.21
74321;BMP280;62738;45.772;4.804;2022-08-25T01:48:29;-23809.91;;;23.25
74321;BMP280;62738;45.772;4.804;2022-08-25T01:51:20;-23797.28;;;22.99
74321;BMP280;62738;45.772;4.804;2022-08-25T01:54:09;-23793.41;;;22.91
74321;BMP280;62738;45.772;4.804;2022-08-25T01:56:57;-23786.13;;;22.76
74321;BMP280;62738;45.772;4.804;2022-08-25T01:59:44;-23781.75;;;22.67
74321;BMP280;62738;45.772;4.804;2022-08-25T02:02:31;-23781.50;;;22.67
74321;BMP280;62738;45.772;4.804;2022-08-25T02:05:19;-23779.31;;;22.62
74321;BMP280;62738;45.772;4.804;2022-08-25T02:08:09;-23789.03;;;22.82
74321;BMP280;62738;45.772;4.804;2022-08-25T02:10:57;-23790.72;;;22.86
74321;BMP280;62738;45.772;4.804;2022-08-25T02:13:44;-23791.47;;;22.87
74321;BMP280;62738;45.772;4.804;2022-08-25T02:16:34;-23800.19;;;23.05
74321;BMP280;62738;45.772;4.804;2022-08-25T02:19:23;-23797.78;;;23.00
74321;BMP280;62738;45.772;4.804;2022-08-25T02:22:11;-23791.94;;;22.88
74321;BMP280;62738;45.772;4.804;2022-08-25T02:55:43;-23753.34;;;22.09
74321;BMP280;62738;45.772;4.804;2022-08-25T02:58:30;-23748.75;;;22.00
74321;BMP280;62738;45.772;4.804;2022-08-25T03:01:17;-23749.72;;;22.02
74321;BMP280;62738;45.772;4.804;2022-08-25T03:04:05;-23747.78;;;21.98
74321;BMP280;62738;45.772;4.804;2022-08-25T03:06:52;-23749.97;;;22.02
74321;BMP280;62738;45.772;4.804;2022-08-25T03:09:39;-23746.56;;;21.95
74321;BMP280;62738;45.772;4.804;2022-08-25T03:12:26;-23726.41;;;21.54
74321;BMP280;62738;45.772;4.804;2022-08-25T03:15:15;-23746.56;;;21.95
74321;BMP280;62738;45.772;4.804;2022-08-25T03:18:03;-23748.25;;;21.99
74321;BMP280;62738;45.772;4.804;2022-08-25T03:20:54;-23751.41;;;22.05
74321;BMP280;62738;45.772;4.804;2022-08-25T03:23:41;-23749.72;;;22.02
74321;BMP280;62738;45.772;4.804;2022-08-25T03:26:28;-23744.38;;;21.91
74321;BMP280;62738;45.772;4.804;2022-08-25T03:29:34;-23744.63;;;21.91
74321;BMP280;62738;45.772;4.804;2022-08-25T03:32:21;-23751.41;;;22.05
74321;BMP280;62738;45.772;4.804;2022-08-25T03:35:09;-23747.28;;;21.97
74321;BMP280;62738;45.772;4.804;2022-08-25T03:37:58;-23748.25;;;21.99
74321;BMP280;62738;45.772;4.804;2022-08-25T03:40:45;-23746.31;;;21.95
74321;BMP280;62738;45.772;4.804;2022-08-25T03:43:32;-23754.09;;;22.11
74321;BMP280;62738;45.772;4.804;2022-08-25T03:46:25;-23741.97;;;21.86
74321;BMP280;62738;45.772;4.804;2022-08-25T03:49:16;-23730.53;;;21.62
74321;BMP280;62738;45.772;4.804;2022-08-25T03:52:03;-23725.94;;;21.53
74321;BMP280;62738;45.772;4.804;2022-08-25T03:54:50;-23725.44;;;21.52
74321;BMP280;62738;45.772;4.804;2022-08-25T03:57:38;-23725.94;;;21.53
74321;BMP280;62738;45.772;4.804;2022-08-25T04:00:25;-23714.78;;;21.30
74321;BMP280;62738;45.772;4.804;2022-08-25T04:03:12;-23713.56;;;21.28
74321;BMP280;62738;45.772;4.804;2022-08-25T04:06:03;-23709.91;;;21.20
74321;BMP280;62738;45.772;4.804;2022-08-25T04:08:51;-23694.38;;;20.88
74321;BMP280;62738;45.772;4.804;2022-08-25T04:11:38;-23697.78;;;20.95
74321;BMP280;62738;45.772;4.804;2022-08-25T04:14:28;-23703.59;;;21.07
74321;BMP280;62738;45.772;4.804;2022-08-25T04:17:15;-23713.31;;;21.27
74321;BMP280;62738;45.772;4.804;2022-08-25T04:20:03;-23728.84;;;21.59
74321;BMP280;62738;45.772;4.804;2022-08-25T04:22:50;-23723.03;;;21.47
74321;BMP280;62738;45.772;4.804;2022-08-25T04:25:39;-23715.25;;;21.31
74321;BMP280;62738;45.772;4.804;2022-08-25T04:28:31;-23711.38;;;21.23
74321;BMP280;62738;45.772;4.804;2022-08-25T04:31:19;-23703.84;;;21.08
74321;BMP280;62738;45.772;4.804;2022-08-25T04:34:07;-23715.00;;;21.30
74321;BMP280;62738;45.772;4.804;2022-08-25T04:37:14;-23715.00;;;21.30
74321;BMP280;62738;45.772;4.804;2022-08-25T04:40:02;-23711.63;;;21.24
74321;BMP280;62738;45.772;4.804;2022-08-25T04:42:50;-23700.94;;;21.02
74321;BMP280;62738;45.772;4.804;2022-08-25T04:45:38;-23695.34;;;20.90
74321;BMP280;62738;45.772;4.804;2022-08-25T04:48:25;-23704.09;;;21.08
74321;BMP280;62738;45.772;4.804;2022-08-25T04:51:17;-23703.59;;;21.07
74321;BMP280;62738;45.772;4.804;2022-08-25T04:54:07;-23688.56;;;20.76
74321;BMP280;62738;45.772;4.804;2022-08-25T04:56:54;-23712.34;;;21.25
74321;BMP280;62738;45.772;4.804;2022-08-25T04:59:44;-23711.13;;;21.23
74321;BMP280;62738;45.772;4.804;2022-08-25T05:02:31;-23719.38;;;21.39
74321;BMP280;62738;45.772;4.804;2022-08-25T05:05:18;-23720.13;;;21.41
74321;BMP280;62738;45.772;4.804;2022-08-25T05:08:05;-23719.38;;;21.39
74321;BMP280;62738;45.772;4.804;2022-08-25T05:10:53;-23715.00;;;21.30
74321;BMP280;62738;45.772;4.804;2022-08-25T05:13:44;-23712.81;;;21.26
74321;BMP280;62738;45.772;4.804;2022-08-25T05:16:37;-23710.66;;;21.22
74321;BMP280;62738;45.772;4.804;2022-08-25T05:19:25;-23711.63;;;21.24
74321;BMP280;62738;45.772;4.804;2022-08-25T05:22:12;-23696.81;;;20.93
74321;BMP280;62738;45.772;4.804;2022-08-25T05:24:59;-23698.28;;;20.96
74321;BMP280;62738;45.772;4.804;2022-08-25T05:27:46;-23712.81;;;21.26
74321;BMP280;62738;45.772;4.804;2022-08-25T05:30:36;-23713.06;;;21.27
74321;BMP280;62738;45.772;4.804;2022-08-25T05:33:24;-23718.66;;;21.38
74321;BMP280;62738;45.772;4.804;2022-08-25T05:36:16;-23734.66;;;21.71
74321;BMP280;62738;45.772;4.804;2022-08-25T05:39:04;-23745.09;;;21.92
74321;BMP280;62738;45.772;4.804;2022-08-25T05:41:51;-23736.38;;;21.74
74321;BMP280;62738;45.772;4.804;2022-08-25T05:44:38;-23743.66;;;21.89
74321;BMP280;62738;45.772;4.804;2022-08-25T05:47:25;-23749.97;;;22.02
74321;BMP280;62738;45.772;4.804;2022-08-25T05:50:12;-23753.13;;;22.09
74321;BMP280;62738;45.772;4.804;2022-08-25T05:52:59;-23756.28;;;22.15
74321;BMP280;62738;45.772;4.804;2022-08-25T05:55:46;-23756.03;;;22.14
74321;BMP280;62738;45.772;4.804;2022-08-25T05:58:34;-23747.28;;;21.97
74321;BMP280;62738;45.772;4.804;2022-08-25T06:01:27;-23757.97;;;22.18
74321;BMP280;62738;45.772;4.804;2022-08-25T06:04:33;-23746.09;;;21.94
74321;BMP280;62738;45.772;4.804;2022-08-25T06:07:26;-23760.16;;;22.23
74321;BMP280;62738;45.772;4.804;2022-08-25T06:10:14;-23767.69;;;22.38
74321;BMP280;62738;45.772;4.804;2022-08-25T06:13:01;-23764.75;;;22.32
74321;BMP280;62738;45.772;4.804;2022-08-25T06:15:56;-23769.63;;;22.42
74321;BMP280;62738;45.772;4.804;2022-08-25T06:18:44;-23763.31;;;22.29
74321;BMP280;62738;45.772;4.804;2022-08-25T06:21:31;-23775.44;;;22.54
74321;BMP280;62738;45.772;4.804;2022-08-25T06:24:20;-23782.25;;;22.68
74321;BMP280;62738;45.772;4.804;2022-08-25T06:27:07;-23786.38;;;22.77
74321;BMP280;62738;45.772;4.804;2022-08-25T06:29:54;-23788.78;;;22.82
74321;BMP280;62738;45.772;4.804;2022-08-25T06:32:42;-23794.38;;;22.93
74321;BMP280;62738;45.772;4.804;2022-08-25T06:35:30;-23793.88;;;22.92
74321;BMP280;62738;45.772;4.804;2022-08-25T06:38:20;-23792.94;;;22.90
74321;BMP280;62738;45.772;4.804;2022-08-25T06:41:08;-23809.41;;;23.24
74321;BMP280;62738;45.772;4.804;2022-08-25T06:43:58;-23805.06;;;23.15
74321;BMP280;62738;45.772;4.804;2022-08-25T06:46:51;-23812.81;;;23.31
74321;BMP280;62738;45.772;4.804;2022-08-25T06:49:38;-23793.41;;;22.91
74321;BMP280;62738;45.772;4.804;2022-08-25T06:52:26;-23807.25;;;23.19
74321;BMP280;62738;45.772;4.804;2022-08-25T06:55:15;-23808.47;;;23.22
74321;BMP280;62738;45.772;4.804;2022-08-25T06:58:03;-23820.09;;;23.46
74321;BMP280;62738;45.772;4.804;2022-08-25T07:00:55;-23825.44;;;23.57
74321;BMP280;62738;45.772;4.804;2022-08-25T07:03:43;-23824.22;;;23.54
74321;BMP280;62738;45.772;4.804;2022-08-25T07:06:32;-23824.00;;;23.54
74321;BMP280;62738;45.772;4.804;2022-08-25T07:09:21;-23837.81;;;23.82
74321;BMP280;62738;45.772;4.804;2022-08-25T07:12:08;-23834.91;;;23.76
74321;BMP280;62738;45.772;4.804;2022-08-25T07:14:55;-23819.63;;;23.45
74321;BMP280;62738;45.772;4.804;2022-08-25T07:18:02;-23830.06;;;23.66
74321;BMP280;62738;45.772;4.804;2022-08-25T07:20:51;-23821.06;;;23.48
74321;BMP280;62738;45.772;4.804;2022-08-25T07:23:40;-23832.47;;;23.71
74321;BMP280;62738;45.772;4.804;2022-08-25T07:26:30;-23843.41;;;23.93
74321;BMP280;62738;45.772;4.804;2022-08-25T07:29:25;-23851.19;;;24.09
74321;BMP280;62738;45.772;4.804;2022-08-25T07:32:18;-23854.56;;;24.16
74321;BMP280;62738;45.772;4.804;2022-08-25T07:35:06;-23857.50;;;24.22
74321;BMP280;62738;45.772;4.804;2022-08-25T07:38:06;-23845.59;;;23.98
74321;BMP280;62738;45.772;4.804;2022-08-25T07:41:02;-23855.78;;;24.19
74321;BMP280;62738;45.772;4.804;2022-08-25T07:43:49;-23863.78;;;24.35
74321;BMP280;62738;45.772;4.804;2022-08-25T07:46:37;-23867.19;;;24.42
74321;BMP280;62738;45.772;4.804;2022-08-25T07:49:25;-23878.63;;;24.65
74321;BMP280;62738;45.772;4.804;2022-08-25T07:52:21;-23868.66;;;24.45
74321;BMP280;62738;45.772;4.804;2022-08-25T07:55:09;-23875.44;;;24.59
74321;BMP280;62738;45.772;4.804;2022-08-25T07:57:57;-23881.28;;;24.71
74321;BMP280;62738;45.772;4.804;2022-08-25T08:00:47;-23888.81;;;24.86
74321;BMP280;62738;45.772;4.804;2022-08-25T08:03:36;-23893.44;;;24.96
74321;BMP280;62738;45.772;4.804;2022-08-25T08:06:38;-23891.22;;;24.91
74321;BMP280;62738;45.772;4.804;2022-08-25T08:09:25;-23894.38;;;24.98
74321;BMP280;62738;45.772;4.804;2022-08-25T08:12:12;-23892.69;;;24.94
74321;BMP280;62738;45.772;4.804;2022-08-25T08:15:01;-23899.50;;;25.08
74321;BMP280;62738;45.772;4.804;2022-08-25T08:17:48;-23907.00;;;25.24
74321;BMP280;62738;45.772;4.804;2022-08-25T08:20:35;-23917.69;;;25.45
74321;BMP280;62738;45.772;4.804;2022-08-25T08:23:28;-23921.59;;;25.53
74321;BMP280;62738;45.772;4.804;2022-08-25T08:26:16;-23919.63;;;25.49
74321;BMP280;62738;45.772;4.804;2022-08-25T08:29:04;-23925.94;;;25.62
74321;BMP280;62738;45.772;4.804;2022-08-25T08:31:51;-23933.25;;;25.77
74321;BMP280;62738;45.772;4.804;2022-08-25T08:34:39;-23931.31;;;25.73
74321;BMP280;62738;45.772;4.804;2022-08-25T08:37:27;-23935.19;;;25.81
74321;BMP280;62738;45.772;4.804;2022-08-25T08:40:17;-23936.88;;;25.85
74321;BMP280;62738;45.772;4.804;2022-08-25T08:43:10;-23943.44;;;25.98
74321;BMP280;62738;45.772;4.804;2022-08-25T08:46:04;-23943.94;;;25.99
74321;BMP280;62738;45.772;4.804;2022-08-25T08:49:00;-23947.31;;;26.06
74321;BMP280;62738;45.772;4.804;2022-08-25T08:51:57;-23949.03;;;26.09
74321;BMP280;62738;45.772;4.804;2022-08-25T08:54:49;-23956.56;;;26.25
74321;BMP280;62738;45.772;4.804;2022-08-25T08:57:43;-23962.88;;;26.38
74321;BMP280;62738;45.772;4.804;2022-08-25T09:00:38;-23964.31;;;26.41
74321;BMP280;62738;45.772;4.804;2022-08-25T09:03:32;-23976.47;;;26.66
74321;BMP280;62738;45.772;4.804;2022-08-25T09:06:27;-23969.19;;;26.51
74321;BMP280;62738;45.772;4.804;2022-08-25T09:09:29;-23978.41;;;26.70
74321;BMP280;62738;45.772;4.804;2022-08-25T09:18:50;-23988.13;;;26.89
74321;BMP280;62738;45.772;4.804;2022-08-25T09:22:03;-23987.88;;;26.89
74321;BMP280;62738;45.772;4.804;2022-08-25T09:28:51;-23977.44;;;26.68
74321;BMP280;62738;45.772;4.804;2022-08-25T09:31:41;-23996.13;;;27.06
74321;BMP280;62738;45.772;4.804;2022-08-25T09:34:31;-23990.31;;;26.94
74321;BMP280;62738;45.772;4.804;2022-08-25T09:37:21;-24003.19;;;27.20
74321;BMP280;62738;45.772;4.804;2022-08-25T09:40:10;-24007.53;;;27.29
74321;BMP280;62738;45.772;4.804;2022-08-25T09:42:59;-24015.56;;;27.45
74321;BMP280;62738;45.772;4.804;2022-08-25T09:46:35;-24020.66;;;27.56
74321;BMP280;62738;45.772;4.804;2022-08-25T09:48:57;-24027.94;;;27.71
74321;BMP280;62738;45.772;4.804;2022-08-25T09:52:24;-24040.09;;;27.96
74321;BMP280;62738;45.772;4.804;2022-08-25T09:58:13;-24052.97;;;28.22
74321;BMP280;62738;45.772;4.804;2022-08-25T10:01:16;-24048.34;;;28.13
74321;BMP280;62738;45.772;4.804;2022-08-25T10:04:06;-24059.53;;;28.35
74321;BMP280;62738;45.772;4.804;2022-08-25T10:10:40;-24061.72;;;28.40
74321;BMP280;62738;45.772;4.804;2022-08-25T10:13:43;-24075.81;;;28.69
74321;BMP280;62738;45.772;4.804;2022-08-25T10:16:31;-24069.47;;;28.56
74321;BMP280;62738;45.772;4.804;2022-08-25T10:19:25;-24069.72;;;28.56
74321;BMP280;62738;45.772;4.804;2022-08-25T10:22:26;-24079.94;;;28.77
74321;BMP280;62738;45.772;4.804;2022-08-25T10:25:26;-24080.91;;;28.79
74321;BMP280;62738;45.772;4.804;2022-08-25T10:28:26;-24083.81;;;28.85
74321;BMP280;62738;45.772;4.804;2022-08-25T10:31:23;-24091.84;;;29.01
74321;BMP280;62738;45.772;4.804;2022-08-25T10:34:24;-24090.38;;;28.98
74321;BMP280;62738;45.772;4.804;2022-08-25T10:37:35;-24097.19;;;29.12
74321;BMP280;62738;45.772;4.804;2022-08-25T10:40:52;-24100.09;;;29.18
74321;BMP280;62738;45.772;4.804;2022-08-25T10:47:02;-24107.13;;;29.33
74321;BMP280;62738;45.772;4.804;2022-08-25T10:50:26;-24102.78;;;29.24
74321;BMP280;62738;45.772;4.804;2022-08-25T10:59:28;-24119.03;;;29.57
74321;BMP280;62738;45.772;4.804;2022-08-25T11:02:46;-24121.72;;;29.62
74321;BMP280;62738;45.772;4.804;2022-08-25T11:08:47;-24137.75;;;29.95
74321;BMP280;62738;45.772;4.804;2022-08-25T11:11:56;-24137.75;;;29.95
74321;BMP280;62738;45.772;4.804;2022-08-25T11:14:57;-24146.00;;;30.12
74321;BMP280;62738;45.772;4.804;2022-08-25T11:17:53;-24154.75;;;30.30
74321;BMP280;62738;45.772;4.804;2022-08-25T11:20:45;-24157.19;;;30.35
74321;BMP280;62738;45.772;4.804;2022-08-25T11:23:40;-24159.59;;;30.40
74321;BMP280;62738;45.772;4.804;2022-08-25T11:26:32;-24159.84;;;30.40
74321;BMP280;62738;45.772;4.804;2022-08-25T11:29:27;-24164.00;;;30.49
74321;BMP280;62738;45.772;4.804;2022-08-25T11:32:18;-24166.91;;;30.55
74321;BMP280;62738;45.772;4.804;2022-08-25T11:35:09;-24175.16;;;30.72
74321;BMP280;62738;45.772;4.804;2022-08-25T11:38:24;-24180.25;;;30.82
74321;BMP280;62738;45.772;4.804;2022-08-25T11:41:33;-24168.34;;;30.58
74321;BMP280;62738;45.772;4.804;2022-08-25T11:50:54;-24187.78;;;30.97
74321;BMP280;62738;45.772;4.804;2022-08-25T11:53:42;-24199.47;;;31.21
74321;BMP280;62738;45.772;4.804;2022-08-25T11:56:33;-24199.47;;;31.21
74321;BMP280;62738;45.772;4.804;2022-08-25T12:02:44;-24201.41;;;31.25
74321;BMP280;62738;45.772;4.804;2022-08-25T12:06:14;-24207.72;;;31.38
74321;BMP280;62738;45.772;4.804;2022-08-25T12:11:53;-24201.88;;;31.26
74321;BMP280;62738;45.772;4.804;2022-08-25T12:14:41;-24206.75;;;31.36
74321;BMP280;62738;45.772;4.804;2022-08-25T12:17:37;-24214.28;;;31.51
74321;BMP280;62738;45.772;4.804;2022-08-25T12:24:13;-24219.84;;;31.63
74321;BMP280;62738;45.772;4.804;2022-08-25T12:27:03;-24222.06;;;31.67
74321;BMP280;62738;45.772;4.804;2022-08-25T12:30:19;-24231.78;;;31.87
74321;BMP280;62738;45.772;4.804;2022-08-25T12:33:29;-24231.78;;;31.87
74321;BMP280;62738;45.772;4.804;2022-08-25T12:36:27;-24229.09;;;31.82
74321;BMP280;62738;45.772;4.804;2022-08-25T12:39:22;-24239.53;;;32.03
74321;BMP280;62738;45.772;4.804;2022-08-25T12:42:35;-24247.31;;;32.19
74321;BMP280;62738;45.772;4.804;2022-08-25T12:45:36;-24245.13;;;32.14
74321;BMP280;62738;45.772;4.804;2022-08-25T12:51:19;-24252.66;;;32.30
74321;BMP280;62738;45.772;4.804;2022-08-25T12:54:21;-24258.72;;;32.42
74321;BMP280;62738;45.772;4.804;2022-08-25T12:57:44;-24262.63;;;32.50
74321;BMP280;62738;45.772;4.804;2022-08-25T13:00:36;-24256.31;;;32.37
74321;BMP280;62738;45.772;4.804;2022-08-25T13:03:59;-24260.44;;;32.46
74321;BMP280;62738;45.772;4.804;2022-08-25T13:10:07;-24270.88;;;32.67
74321;BMP280;62738;45.772;4.804;2022-08-25T13:16:02;-24280.13;;;32.86
74321;BMP280;62738;45.772;4.804;2022-08-25T13:18:51;-24275.50;;;32.76
74321;BMP280;62738;45.772;4.804;2022-08-25T13:21:40;-24283.03;;;32.92
74321;BMP280;62738;45.772;4.804;2022-08-25T13:24:35;-24285.47;;;32.97
74321;BMP280;62738;45.772;4.804;2022-08-25T13:27:26;-24283.50;;;32.93
74321;BMP280;62738;45.772;4.804;2022-08-25T13:30:34;-24286.44;;;32.99
74321;BMP280;62738;45.772;4.804;2022-08-25T13:33:22;-24283.75;;;32.93
74321;BMP280;62738;45.772;4.804;2022-08-25T13:36:15;-24289.13;;;33.04
74321;BMP280;62738;45.772;4.804;2022-08-25T13:39:24;-24293.97;;;33.14
74321;BMP280;62738;45.772;4.804;2022-08-25T13:42:31;-24287.91;;;33.02
74321;BMP280;62738;45.772;4.804;2022-08-25T13:45:21;-24300.28;;;33.27
74321;BMP280;62738;45.772;4.804;2022-08-25T13:48:11;-24300.53;;;33.27
74321;BMP280;62738;45.772;4.804;2022-08-25T13:51:18;-24305.63;;;33.38
74321;BMP280;62738;45.772;4.804;2022-08-25T13:54:23;-24313.16;;;33.53
74321;BMP280;62738;45.772;4.804;2022-08-25T13:57:21;-24314.63;;;33.56
74321;BMP280;62738;45.772;4.804;2022-08-25T14:00:10;-24320.94;;;33.69
74321;BMP280;62738;45.772;4.804;2022-08-25T14:03:00;-24310.72;;;33.48
74321;BMP280;62738;45.772;4.804;2022-08-25T14:11:47;-24325.31;;;33.78
74321;BMP280;62738;45.772;4.804;2022-08-25T14:14:41;-24303.19;;;33.33
74321;BMP280;62738;45.772;4.804;2022-08-25T14:17:28;-24309.28;;;33.45
74321;BMP280;62738;45.772;4.804;2022-08-25T14:20:28;-24313.41;;;33.54
74321;BMP280;62738;45.772;4.804;2022-08-25T14:23:20;-24301.97;;;33.30
74321;BMP280;62738;45.772;4.804;2022-08-25T14:26:07;-24306.13;;;33.39
74321;BMP280;62738;45.772;4.804;2022-08-25T14:28:54;-24313.88;;;33.55
74321;BMP280;62738;45.772;4.804;2022-08-25T14:31:43;-24323.38;;;33.74
74321;BMP280;62738;45.772;4.804;2022-08-25T14:34:33;-24326.78;;;33.81
74321;BMP280;62738;45.772;4.804;2022-08-25T14:37:22;-24323.13;;;33.73
74321;BMP280;62738;45.772;4.804;2022-08-25T14:40:11;-24326.28;;;33.80
74321;BMP280;62738;45.772;4.804;2022-08-25T14:43:01;-24335.03;;;33.98
74321;BMP280;62738;45.772;4.804;2022-08-25T14:45:48;-24334.53;;;33.97
74321;BMP280;62738;45.772;4.804;2022-08-25T14:48:43;-24330.41;;;33.88
74321;BMP280;62738;45.772;4.804;2022-08-25T14:51:31;-24326.53;;;33.80
74321;BMP280;62738;45.772;4.804;2022-08-25T14:54:24;-24334.31;;;33.96
74321;BMP280;62738;45.772;4.804;2022-08-25T14:57:12;-24324.81;;;33.77
74321;BMP280;62738;45.772;4.804;2022-08-25T15:00:00;-24314.38;;;33.56
74321;BMP280;62738;45.772;4.804;2022-08-25T15:02:49;-24313.16;;;33.53
74321;BMP280;62738;45.772;4.804;2022-08-25T15:05:39;-24305.88;;;33.38
74321;BMP280;62738;45.772;4.804;2022-08-25T15:08:26;-24306.84;;;33.40
74321;BMP280;62738;45.772;4.804;2022-08-25T15:11:33;-24304.91;;;33.36
74321;BMP280;62738;45.772;4.804;2022-08-25T15:14:22;-24303.44;;;33.33
74321;BMP280;62738;45.772;4.804;2022-08-25T15:17:19;-24288.38;;;33.03
74321;BMP280;62738;45.772;4.804;2022-08-25T15:20:06;-24287.91;;;33.02
74321;BMP280;62738;45.772;4.804;2022-08-25T15:22:56;-24285.94;;;32.98
74321;BMP280;62738;45.772;4.804;2022-08-25T15:25:48;-24286.19;;;32.98
74321;BMP280;62738;45.772;4.804;2022-08-25T15:28:41;-24282.06;;;32.90
74321;BMP280;62738;45.772;4.804;2022-08-25T15:31:30;-24282.06;;;32.90
74321;BMP280;62738;45.772;4.804;2022-08-25T15:34:17;-24279.38;;;32.84
74321;BMP280;62738;45.772;4.804;2022-08-25T15:37:15;-24275.50;;;32.76
74321;BMP280;62738;45.772;4.804;2022-08-25T15:40:03;-24273.81;;;32.73
74321;BMP280;62738;45.772;4.804;2022-08-25T15:42:53;-24259.47;;;32.44
74321;BMP280;62738;45.772;4.804;2022-08-25T15:45:41;-24190.94;;;31.04
74321;BMP280;62738;45.772;4.804;2022-08-25T15:48:32;-23961.66;;;26.35
74321;BMP280;62738;45.772;4.804;2022-08-25T15:51:19;-23866.47;;;24.41
74321;BMP280;62738;45.772;4.804;2022-08-25T15:54:06;-23852.16;;;24.11
74321;BMP280;62738;45.772;4.804;2022-08-25T15:56:55;-23868.16;;;24.44
74321;BMP280;62738;45.772;4.804;2022-08-25T15:59:42;-23871.56;;;24.51
74321;BMP280;62738;45.772;4.804;2022-08-25T16:02:30;-23874.47;;;24.57
74321;BMP280;62738;45.772;4.804;2022-08-25T16:05:19;-23869.13;;;24.46
74321;BMP280;62738;45.772;4.804;2022-08-25T16:08:11;-23873.03;;;24.54
74321;BMP280;62738;45.772;4.804;2022-08-25T16:11:06;-23874.47;;;24.57
74321;BMP280;62738;45.772;4.804;2022-08-25T16:14:06;-23879.34;;;24.67
74321;BMP280;62738;45.772;4.804;2022-08-25T16:16:53;-23883.94;;;24.76
74321;BMP280;62738;45.772;4.804;2022-08-25T16:19:45;-23865.25;;;24.38
74321;BMP280;62738;45.772;4.804;2022-08-25T16:22:33;-23870.13;;;24.48
74321;BMP280;62738;45.772;4.804;2022-08-25T16:25:20;-23885.41;;;24.79
74321;BMP280;62738;45.772;4.804;2022-08-25T16:28:11;-23898.03;;;25.05
74321;BMP280;62738;45.772;4.804;2022-08-25T16:30:58;-23903.13;;;25.16
74321;BMP280;62738;45.772;4.804;2022-08-25T16:33:47;-23905.31;;;25.20
74321;BMP280;62738;45.772;4.804;2022-08-25T16:36:35;-23907.50;;;25.25
74321;BMP280;62738;45.772;4.804;2022-08-25T16:39:23;-23924.00;;;25.58
74321;BMP280;62738;45.772;4.804;2022-08-25T16:42:10;-23933.47;;;25.78
74321;BMP280;62738;45.772;4.804;2022-08-25T16:44:58;-23932.75;;;25.76
74321;BMP280;62738;45.772;4.804;2022-08-25T16:47:45;-23935.19;;;25.81
74321;BMP280;62738;45.772;4.804;2022-08-25T16:50:33;-23944.16;;;26.00
74321;BMP280;62738;45.772;4.804;2022-08-25T16:53:20;-23938.81;;;25.89
74321;BMP280;62738;45.772;4.804;2022-08-25T16:56:26;-23935.19;;;25.81
74321;BMP280;62738;45.772;4.804;2022-08-25T16:59:13;-23908.97;;;25.28
74321;BMP280;62738;45.772;4.804;2022-08-25T17:02:00;-23912.38;;;25.34
74321;BMP280;62738;45.772;4.804;2022-08-25T17:04:47;-23915.75;;;25.41
74321;BMP280;62738;45.772;4.804;2022-08-25T17:07:35;-23919.63;;;25.49
74321;BMP280;62738;45.772;4.804;2022-08-25T17:10:22;-23918.19;;;25.46
74321;BMP280;62738;45.772;4.804;2022-08-25T17:13:11;-23924.75;;;25.60
74321;BMP280;62738;45.772;4.804;2022-08-25T17:15:59;-23926.94;;;25.64
74321;BMP280;62738;45.772;4.804;2022-08-25T17:18:48;-23927.66;;;25.66
74321;BMP280;62738;45.772;4.804;2022-08-25T17:21:36;-23927.16;;;25.65
74321;BMP280;62738;45.772;4.804;2022-08-25T17:24:30;-23921.09;;;25.52
74321;BMP280;62738;45.772;4.804;2022-08-25T17:27:19;-23932.75;;;25.76
74321;BMP280;62738;45.772;4.804;2022-08-25T17:30:07;-23930.31;;;25.71
74321;BMP280;62738;45.772;4.804;2022-08-25T17:32:55;-23936.16;;;25.83
74321;BMP280;62738;45.772;4.804;2022-08-25T17:35:44;-23933.25;;;25.77
74321;BMP280;62738;45.772;4.804;2022-08-25T17:38:33;-23928.63;;;25.68
74321;BMP280;62738;45.772;4.804;2022-08-25T17:41:20;-23922.81;;;25.56
74321;BMP280;62738;45.772;4.804;2022-08-25T17:44:07;-23922.31;;;25.55
74321;BMP280;62738;45.772;4.804;2022-08-25T17:46:56;-23929.13;;;25.69
74321;BMP280;62738;45.772;4.804;2022-08-25T17:49:43;-23925.94;;;25.62
74321;BMP280;62738;45.772;4.804;2022-08-25T17:52:30;-23920.13;;;25.50